createdAt,value
2023-01-08T00:00:09.132Z,100286.97
2023-01-08T00:02:35.521Z,100286.50
2023-01-08T00:05:01.897Z,100289.00
2023-01-08T00:07:28.226Z,100280.94
2023-01-08T00:09:54.529Z,100288.63
2023-01-08T00:12:20.969Z,100271.16
2023-01-08T00:14:47.288Z,100270.78
2023-01-08T00:17:13.646Z,100273.66
2023-01-08T00:19:39.977Z,100274.47
2023-01-08T00:22:06.306Z,100269.09
2023-01-08T00:24:32.646Z,100277.31
2023-01-08T00:26:59.003Z,100269.94
2023-01-08T00:29:25.346Z,100257.06
2023-01-08T00:31:52.052Z,100257.06
2023-01-08T00:34:18.379Z,100263.03
2023-01-08T00:36:44.758Z,100268.09
2023-01-08T00:39:11.131Z,100256.84
2023-01-08T00:41:37.460Z,100250.53
2023-01-08T00:44:03.940Z,100255.03
2023-01-08T00:46:30.346Z,100265.81
2023-01-08T00:48:56.712Z,100255.75
2023-01-08T00:51:23.103Z,100259.78
2023-01-08T00:53:49.448Z,100273.47
2023-01-08T00:56:15.857Z,100270.63
2023-01-08T00:58:42.243Z,100278.22
2023-01-08T01:01:10.845Z,100288.44
2023-01-08T01:03:37.432Z,100274.16
2023-01-08T01:06:05.072Z,100267.88
2023-01-08T01:08:31.531Z,100263.09
2023-01-08T01:10:57.883Z,100243.44
2023-01-08T01:13:24.275Z,100255.66
2023-01-08T01:15:58.598Z,100260.53
2023-01-08T01:18:25.340Z,100268.16
2023-01-08T01:20:51.640Z,100244.13
2023-01-08T01:23:17.980Z,100256.69
2023-01-08T01:25:45.840Z,100240.59
2023-01-08T01:28:12.416Z,100241.78
2023-01-08T01:30:38.870Z,100236.19
2023-01-08T01:33:05.288Z,100254.28
2023-01-08T01:35:31.628Z,100248.31
2023-01-08T01:37:58.026Z,100253.75
2023-01-08T01:40:24.425Z,100247.47
2023-01-08T01:42:50.846Z,100253.28
2023-01-08T01:45:24.426Z,100265.16
2023-01-08T01:47:59.850Z,100264.91
2023-01-08T01:50:30.949Z,100250.78
2023-01-08T01:53:17.999Z,100245.44
2023-01-08T01:55:45.650Z,100250.97
2023-01-08T01:58:17.817Z,100254.00
2023-01-08T02:00:44.385Z,100264.84
2023-01-08T02:03:13.636Z,100250.91
2023-01-08T02:05:54.419Z,100243.91
2023-01-08T02:09:04.920Z,100248.53
2023-01-08T02:12:01.787Z,100253.59
2023-01-08T02:14:39.075Z,100250.97
2023-01-08T02:17:12.377Z,100255.75
2023-01-08T02:19:52.303Z,100249.16
2023-01-08T02:22:27.745Z,100258.44
2023-01-08T02:25:06.307Z,100250.66
2023-01-08T02:27:35.744Z,100239.03
2023-01-08T02:30:04.455Z,100253.16
2023-01-08T02:32:38.375Z,100235.91
2023-01-08T02:35:06.605Z,100232.38
2023-01-08T02:37:33.574Z,100240.28
2023-01-08T02:40:03.800Z,100225.88
2023-01-08T02:42:48.131Z,100219.13
2023-01-08T02:45:26.052Z,100224.34
2023-01-08T02:48:15.557Z,100221.16
2023-01-08T02:50:49.965Z,100207.31
2023-01-08T02:53:27.407Z,100201.09
2023-01-08T02:56:24.533Z,100214.59
2023-01-08T02:58:53.843Z,100220.63
2023-01-08T03:01:22.759Z,100219.81
2023-01-08T03:03:58.059Z,100217.41
2023-01-08T03:06:26.513Z,100227.66
2023-01-08T03:08:54.149Z,100205.78
2023-01-08T03:11:22.720Z,100212.59
2023-01-08T03:14:02.398Z,100208.97
2023-01-08T03:16:34.620Z,100200.13
2023-01-08T03:19:23.504Z,100211.41
2023-01-08T03:21:52.003Z,100213.78
2023-01-08T03:24:33.312Z,100220.22
2023-01-08T03:27:03.972Z,100210.59
2023-01-08T03:29:31.708Z,100205.38
2023-01-08T03:32:02.834Z,100208.38
2023-01-08T03:34:32.843Z,100201.53
2023-01-08T03:37:03.561Z,100207.38
2023-01-08T03:39:52.331Z,100198.53
2023-01-08T03:42:20.321Z,100197.94
2023-01-08T03:44:47.150Z,100197.56
2023-01-08T03:47:15.264Z,100194.94
2023-01-08T03:49:44.368Z,100195.34
2023-01-08T03:52:21.465Z,100196.75
2023-01-08T03:54:47.816Z,100203.41
2023-01-08T03:57:14.133Z,100210.66
2023-01-08T03:59:40.471Z,100199.63
2023-01-08T04:02:06.930Z,100218.47
2023-01-08T04:04:33.446Z,100209.03
2023-01-08T04:06:59.887Z,100224.50
2023-01-08T04:09:26.354Z,100220.06
2023-01-08T04:11:52.819Z,100208.59
2023-01-08T04:14:19.427Z,100196.56
2023-01-08T04:16:45.884Z,100197.94
2023-01-08T04:19:12.767Z,100190.72
2023-01-08T04:21:39.262Z,100185.72
2023-01-08T04:24:06.211Z,100183.69
2023-01-08T04:26:32.887Z,100184.53
2023-01-08T04:28:59.300Z,100177.28
2023-01-08T04:31:25.640Z,100170.06
2023-01-08T04:33:52.003Z,100181.75
2023-01-08T04:36:18.428Z,100178.94
2023-01-08T04:38:44.865Z,100163.47
2023-01-08T04:41:11.199Z,100162.47
2023-01-08T04:43:37.728Z,100167.31
2023-01-08T04:46:06.092Z,100158.47
2023-01-08T04:48:32.493Z,100171.34
2023-01-08T04:50:59.628Z,100176.75
2023-01-08T04:53:26.527Z,100164.13
2023-01-08T04:55:52.990Z,100156.94
2023-01-08T04:58:19.379Z,100155.34
2023-01-08T05:00:46.055Z,100157.72
2023-01-08T05:03:12.648Z,100150.94
2023-01-08T05:05:39.045Z,100152.75
2023-01-08T05:08:05.474Z,100145.13
2023-01-08T05:10:31.837Z,100162.00
2023-01-08T05:12:59.590Z,100163.19
2023-01-08T05:15:26.623Z,100160.19
2023-01-08T05:18:05.277Z,100157.97
2023-01-08T05:20:34.717Z,100159.22
2023-01-08T05:23:02.164Z,100142.75
2023-01-08T05:25:28.484Z,100141.75
2023-01-08T05:27:54.856Z,100149.38
2023-01-08T05:30:21.206Z,100145.38
2023-01-08T05:32:47.547Z,100149.38
2023-01-08T05:35:13.877Z,100141.34
2023-01-08T05:37:40.209Z,100152.56
2023-01-08T05:40:07.117Z,100138.72
2023-01-08T05:42:34.718Z,100144.53
2023-01-08T05:45:02.153Z,100120.28
2023-01-08T05:47:32.481Z,100127.47
2023-01-08T05:49:58.989Z,100116.44
2023-01-08T05:52:25.423Z,100143.28
2023-01-08T05:54:51.810Z,100144.72
2023-01-08T05:57:18.248Z,100153.13
2023-01-08T05:59:44.631Z,100151.75
2023-01-08T06:02:11.145Z,100146.72
2023-01-08T06:04:37.548Z,100147.28
2023-01-08T06:07:03.891Z,100145.69
2023-01-08T06:09:30.271Z,100146.09
2023-01-08T06:11:56.620Z,100128.22
2023-01-08T06:14:22.943Z,100123.59
2023-01-08T06:16:49.365Z,100122.78
2023-01-08T06:19:15.671Z,100124.19
2023-01-08T06:21:41.998Z,100121.59
2023-01-08T06:24:08.440Z,100136.44
2023-01-08T06:26:34.780Z,100139.84
2023-01-08T06:29:01.248Z,100132.69
2023-01-08T06:31:27.719Z,100134.91
2023-01-08T06:33:54.123Z,100158.34
2023-01-08T06:36:20.505Z,100154.75
2023-01-08T06:38:46.840Z,100160.56
2023-01-08T06:41:13.239Z,100157.38
2023-01-08T06:43:39.658Z,100151.34
2023-01-08T06:46:07.675Z,100150.75
2023-01-08T06:48:34.697Z,100151.78
2023-01-08T06:51:02.101Z,100151.19
2023-01-08T06:53:28.557Z,100150.59
2023-01-08T06:55:54.869Z,100150.78
2023-01-08T06:58:21.177Z,100158.44
2023-01-08T07:00:47.561Z,100152.22
2023-01-08T07:03:13.951Z,100136.22
2023-01-08T07:05:40.414Z,100157.81
2023-01-08T07:08:10.106Z,100155.44
2023-01-08T07:10:36.466Z,100156.66
2023-01-08T07:13:02.830Z,100151.44
2023-01-08T07:15:29.176Z,100150.84
2023-01-08T07:17:55.550Z,100156.88
2023-01-08T07:20:22.008Z,100156.66
2023-01-08T07:22:48.425Z,100155.88
2023-01-08T07:25:14.926Z,100164.28
2023-01-08T07:27:41.314Z,100157.66
2023-01-08T07:30:12.869Z,100157.47
2023-01-08T07:32:44.384Z,100157.09
2023-01-08T07:35:10.734Z,100163.09
2023-01-08T07:37:40.926Z,100166.69
2023-01-08T07:40:09.521Z,100164.88
2023-01-08T07:42:35.968Z,100170.09
2023-01-08T07:45:02.688Z,100166.69
2023-01-08T07:47:29.150Z,100168.09
2023-01-08T07:49:55.512Z,100163.66
2023-01-08T07:52:21.987Z,100163.44
2023-01-08T07:54:48.365Z,100150.63
2023-01-08T07:57:14.737Z,100160.63
2023-01-08T07:59:41.132Z,100143.00
2023-01-08T08:02:07.909Z,100140.41
2023-01-08T08:04:34.284Z,100149.41
2023-01-08T08:07:00.682Z,100139.41
2023-01-08T08:09:27.021Z,100136.75
2023-01-08T08:11:53.383Z,100137.00
2023-01-08T08:14:19.785Z,100137.78
2023-01-08T08:16:46.126Z,100123.56
2023-01-08T08:19:12.532Z,100127.78
2023-01-08T08:21:39.063Z,100124.97
2023-01-08T08:27:36.844Z,100132.38
2023-01-08T08:30:04.421Z,100117.38
2023-01-08T08:32:30.753Z,100124.38
2023-01-08T08:34:57.119Z,100126.59
2023-01-08T08:37:23.470Z,100118.97
2023-01-08T08:39:49.783Z,100119.59
2023-01-08T08:42:16.189Z,100132.22
2023-01-08T08:44:43.080Z,100127.81
2023-01-08T08:47:09.759Z,100124.19
2023-01-08T08:49:36.191Z,100119.56
2023-01-08T08:52:04.423Z,100116.19
2023-01-08T08:54:31.133Z,100121.59
2023-01-08T08:56:57.489Z,100112.56
2023-01-08T08:59:23.805Z,100118.19
2023-01-08T09:01:50.280Z,100117.19
2023-01-08T09:04:16.671Z,100112.97
2023-01-08T09:06:43.070Z,100124.19
2023-01-08T09:09:09.425Z,100120.38
2023-01-08T09:11:35.862Z,100113.78
2023-01-08T09:14:02.230Z,100111.56
2023-01-08T09:16:28.655Z,100109.34
2023-01-08T09:18:55.973Z,100119.16
2023-01-08T09:21:22.396Z,100109.75
2023-01-08T09:23:48.852Z,100120.97
2023-01-08T09:26:15.712Z,100115.56
2023-01-08T09:28:42.024Z,100113.97
2023-01-08T09:31:08.403Z,100114.34
2023-01-08T09:33:34.788Z,100126.78
2023-01-08T09:36:01.137Z,100111.53
2023-01-08T09:38:29.854Z,100118.16
2023-01-08T09:41:26.655Z,100116.16
2023-01-08T09:43:54.869Z,100121.56
2023-01-08T09:46:24.949Z,100113.13
2023-01-08T09:48:51.989Z,100114.53
2023-01-08T09:51:20.509Z,100099.88
2023-01-08T09:53:53.544Z,100106.88
2023-01-08T09:56:20.093Z,100109.66
2023-01-08T09:58:49.729Z,100108.84
2023-01-08T10:01:20.168Z,100113.25
2023-01-08T10:03:52.649Z,100105.19
2023-01-08T10:06:19.091Z,100121.19
2023-01-08T10:11:17.956Z,100100.66
2023-01-08T10:13:53.638Z,100105.44
2023-01-08T10:16:41.993Z,100114.25
2023-01-08T10:19:09.797Z,100101.75
2023-01-08T10:21:41.047Z,100105.75
2023-01-08T10:24:07.832Z,100091.06
2023-01-08T10:26:37.157Z,100082.97
2023-01-08T10:29:21.732Z,100094.72
2023-01-08T10:31:54.419Z,100084.28
2023-01-08T10:34:53.392Z,100091.84
2023-01-08T10:37:29.741Z,100078.66
2023-01-08T10:40:03.116Z,100075.66
2023-01-08T10:42:34.371Z,100073.06
2023-01-08T10:45:07.597Z,100075.78
2023-01-08T10:47:36.334Z,100072.13
2023-01-08T10:50:05.466Z,100068.50
2023-01-08T10:52:33.783Z,100068.19
2023-01-08T10:55:21.306Z,100062.91
2023-01-08T10:57:56.723Z,100051.69
2023-01-08T11:00:34.322Z,100050.88
2023-01-08T11:03:06.759Z,100040.03
2023-01-08T11:05:38.784Z,100030.50
2023-01-08T11:08:15.945Z,100035.91
2023-01-08T11:10:42.349Z,100028.66
2023-01-08T11:13:19.384Z,100032.34
2023-01-08T11:15:46.145Z,100007.97
2023-01-08T11:18:28.033Z,100019.16
2023-01-08T11:21:07.795Z,100020.53
2023-01-08T11:23:34.229Z,100009.94
2023-01-08T11:26:08.439Z,100013.22
2023-01-08T11:28:49.882Z,100004.88
2023-01-08T11:31:28.981Z,100006.31
2023-01-08T11:34:03.376Z,100008.53
2023-01-08T11:36:41.166Z,99988.06
2023-01-08T11:39:09.371Z,99989.34
2023-01-08T11:41:44.945Z,99991.16
2023-01-08T11:44:32.747Z,99991.06
2023-01-08T11:47:07.430Z,99991.78
2023-01-08T11:49:52.021Z,99981.91
2023-01-08T11:52:57.071Z,99982.00
2023-01-08T11:55:41.522Z,99976.03
2023-01-08T11:58:26.257Z,99979.06
2023-01-08T12:00:52.515Z,99976.59
2023-01-08T12:03:36.545Z,99970.78
2023-01-08T12:06:05.651Z,99969.22
2023-01-08T12:08:53.339Z,99956.91
2023-01-08T12:11:26.338Z,99954.72
2023-01-08T12:14:18.074Z,99947.34
2023-01-08T12:17:02.637Z,99938.97
2023-01-08T12:20:07.803Z,99938.66
2023-01-08T12:23:00.093Z,99935.53
2023-01-08T12:25:59.703Z,99926.97
2023-01-08T12:28:41.347Z,99918.91
2023-01-08T12:31:10.729Z,99921.06
2023-01-08T12:33:56.446Z,99911.16
2023-01-08T12:36:38.619Z,99920.16
2023-01-08T12:39:12.179Z,99915.97
2023-01-08T12:41:41.278Z,99905.94
2023-01-08T12:44:10.843Z,99898.41
2023-01-08T12:46:41.941Z,99911.06
2023-01-08T12:49:13.570Z,99908.75
2023-01-08T12:51:52.114Z,99910.38
2023-01-08T12:54:35.343Z,99893.88
2023-01-08T12:57:23.117Z,99899.13
2023-01-08T12:59:56.165Z,99887.50
2023-01-08T13:02:49.491Z,99889.22
2023-01-08T13:05:18.601Z,99891.84
2023-01-08T13:07:51.415Z,99875.91
2023-01-08T13:10:23.464Z,99892.16
2023-01-08T13:12:51.379Z,99887.75
2023-01-08T13:15:26.256Z,99881.25
2023-01-08T13:17:58.173Z,99874.63
2023-01-08T13:20:27.038Z,99878.88
2023-01-08T13:22:56.396Z,99873.97
2023-01-08T13:25:25.686Z,99879.03
2023-01-08T13:27:52.132Z,99867.00
2023-01-08T13:30:41.332Z,99867.78
2023-01-08T13:33:28.542Z,99866.44
2023-01-08T13:36:28.346Z,99854.34
2023-01-08T13:39:09.939Z,99849.59
2023-01-08T13:41:56.222Z,99841.69
2023-01-08T13:44:27.892Z,99847.88
2023-01-08T13:47:04.575Z,99841.84
2023-01-08T13:49:36.024Z,99845.69
2023-01-08T13:52:03.086Z,99849.44
2023-01-08T13:54:38.882Z,99835.09
2023-01-08T13:57:12.083Z,99845.09
2023-01-08T13:59:58.444Z,99833.63
2023-01-08T14:02:43.053Z,99822.16
2023-01-08T14:05:31.453Z,99831.38
2023-01-08T14:07:58.183Z,99832.94
2023-01-08T14:10:26.041Z,99829.63
2023-01-08T14:12:52.733Z,99820.75
2023-01-08T14:15:25.901Z,99829.16
2023-01-08T14:17:53.555Z,99821.78
2023-01-08T14:20:28.377Z,99806.56
2023-01-08T14:22:54.984Z,99800.28
2023-01-08T14:25:22.622Z,99801.06
2023-01-08T14:28:04.385Z,99801.88
2023-01-08T14:30:31.363Z,99799.81
2023-01-08T14:32:59.502Z,99807.47
2023-01-08T14:35:32.452Z,99804.38
2023-01-08T14:38:00.210Z,99802.31
2023-01-08T14:40:34.565Z,99801.13
2023-01-08T14:43:07.782Z,99805.47
2023-01-08T14:45:34.496Z,99820.22
2023-01-08T14:48:16.855Z,99818.53
2023-01-08T14:50:45.309Z,99815.56
2023-01-08T14:53:28.065Z,99818.41
2023-01-08T14:55:56.650Z,99799.75
2023-01-08T14:58:25.998Z,99802.94
2023-01-08T15:00:59.308Z,99804.53
2023-01-08T15:03:41.827Z,99798.94
2023-01-08T15:06:09.017Z,99798.94
2023-01-08T15:08:37.056Z,99790.16
2023-01-08T15:11:04.633Z,99793.38
2023-01-08T15:13:37.166Z,99792.31
2023-01-08T15:16:26.968Z,99784.41
2023-01-08T15:19:11.377Z,99781.78
2023-01-08T15:21:38.474Z,99779.34
2023-01-08T15:24:06.931Z,99781.38
2023-01-08T15:26:33.527Z,99774.00
2023-01-08T15:29:04.427Z,99759.50
2023-01-08T15:31:33.642Z,99751.59
2023-01-08T15:34:00.785Z,99758.34
2023-01-08T15:36:27.424Z,99764.66
2023-01-08T15:38:53.797Z,99750.97
2023-01-08T15:41:22.585Z,99751.03
2023-01-08T15:43:51.391Z,99745.81
2023-01-08T15:46:17.920Z,99738.19
2023-01-08T15:48:44.234Z,99734.28
2023-01-08T15:51:10.576Z,99745.38
2023-01-08T15:53:36.959Z,99738.03
2023-01-08T15:56:03.469Z,99739.31
2023-01-08T15:58:29.862Z,99744.41
2023-01-08T16:00:56.178Z,99745.28
2023-01-08T16:03:22.560Z,99740.53
2023-01-08T16:05:48.918Z,99740.22
2023-01-08T16:08:15.276Z,99736.50
2023-01-08T16:10:41.633Z,99738.91
2023-01-08T16:13:10.227Z,99736.78
2023-01-08T16:15:38.772Z,99724.44
2023-01-08T16:18:05.160Z,99728.28
2023-01-08T16:20:31.516Z,99728.72
2023-01-08T16:22:57.847Z,99735.34
2023-01-08T16:25:24.262Z,99741.16
2023-01-08T16:27:50.952Z,99748.00
2023-01-08T16:30:17.957Z,99731.22
2023-01-08T16:32:44.491Z,99742.63
2023-01-08T16:35:11.343Z,99733.44
2023-01-08T16:37:38.630Z,99727.06
2023-01-08T16:40:05.631Z,99728.66
2023-01-08T16:42:31.964Z,99727.25
2023-01-08T16:44:58.332Z,99728.84
2023-01-08T16:47:24.665Z,99713.47
2023-01-08T16:49:51.053Z,99720.50
2023-01-08T16:52:17.793Z,99707.13
2023-01-08T16:54:45.355Z,99721.09
2023-01-08T16:57:11.732Z,99703.13
2023-01-08T16:59:38.079Z,99720.50
2023-01-08T17:02:07.532Z,99715.13
2023-01-08T17:04:33.943Z,99704.97
2023-01-08T17:07:00.268Z,99713.94
2023-01-08T17:09:26.667Z,99714.31
2023-01-08T17:11:53.027Z,99711.34
2023-01-08T17:14:19.500Z,99714.34
2023-01-08T17:16:45.939Z,99706.16
2023-01-08T17:19:12.968Z,99709.72
2023-01-08T17:21:39.526Z,99694.38
2023-01-08T17:24:06.961Z,99700.56
2023-01-08T17:26:33.979Z,99707.56
2023-01-08T17:29:00.425Z,99696.38
2023-01-08T17:31:26.877Z,99700.75
2023-01-08T17:33:53.238Z,99701.97
2023-01-08T17:36:21.135Z,99701.53
2023-01-08T17:38:47.824Z,99707.75
2023-01-08T17:41:14.174Z,99701.16
2023-01-08T17:43:40.527Z,99692.38
2023-01-08T17:46:07.811Z,99688.97
2023-01-08T17:48:34.417Z,99698.56
2023-01-08T17:51:07.337Z,99675.19
2023-01-08T17:53:34.951Z,99680.97
2023-01-08T17:56:01.224Z,99676.59
2023-01-08T17:58:27.633Z,99669.78
2023-01-08T18:00:54.000Z,99649.22
2023-01-08T18:03:20.346Z,99659.81
2023-01-08T18:05:47.788Z,99658.59
2023-01-08T18:08:16.718Z,99642.81
2023-01-08T18:10:43.094Z,99639.19
2023-01-08T18:13:10.653Z,99631.41
2023-01-08T18:15:37.054Z,99625.22
2023-01-08T18:18:04.079Z,99628.38
2023-01-08T18:20:33.339Z,99646.16
2023-01-08T18:22:59.700Z,99633.38
2023-01-08T18:25:26.066Z,99641.97
2023-01-08T18:27:52.395Z,99639.31
2023-01-08T18:30:18.914Z,99633.34
2023-01-08T18:32:45.233Z,99618.16
2023-01-08T18:35:11.659Z,99617.72
2023-01-08T18:37:38.027Z,99625.34
2023-01-08T18:40:04.821Z,99628.69
2023-01-08T18:42:31.194Z,99616.28
2023-01-08T18:44:57.706Z,99613.03
2023-01-08T18:47:26.936Z,99596.56
2023-01-08T18:49:54.468Z,99598.53
2023-01-08T18:52:22.360Z,99587.91
2023-01-08T18:54:48.898Z,99591.28
2023-01-08T18:57:15.295Z,99593.00
2023-01-08T18:59:41.746Z,99586.63
2023-01-08T19:02:17.813Z,99588.97
2023-01-08T19:04:46.801Z,99591.56
2023-01-08T19:07:13.577Z,99584.59
2023-01-08T19:09:39.932Z,99569.03
2023-01-08T19:12:06.567Z,99563.44
2023-01-08T19:14:33.008Z,99554.06
2023-01-08T19:16:59.408Z,99565.84
2023-01-08T19:19:27.544Z,99562.66
2023-01-08T19:21:54.214Z,99562.28
2023-01-08T19:24:20.611Z,99545.91
2023-01-08T19:26:46.999Z,99535.34
2023-01-08T19:29:13.427Z,99529.56
2023-01-08T19:31:39.803Z,99525.00
2023-01-08T19:34:06.281Z,99513.28
2023-01-08T19:36:32.970Z,99520.38
2023-01-08T19:38:59.310Z,99513.03
2023-01-08T19:41:25.792Z,99513.22
2023-01-08T19:43:56.091Z,99518.22
2023-01-08T19:46:22.962Z,99514.41
2023-01-08T19:48:50.071Z,99520.81
2023-01-08T19:51:16.459Z,99503.22
2023-01-08T19:53:42.849Z,99496.44
2023-01-08T19:56:12.807Z,99500.84
2023-01-08T19:58:39.352Z,99515.25
2023-01-08T20:01:14.284Z,99490.47
2023-01-08T20:03:41.888Z,99503.81
2023-01-08T20:06:13.614Z,99506.41
2023-01-08T20:08:39.955Z,99497.06
2023-01-08T20:11:14.213Z,99493.44
2023-01-08T20:13:41.081Z,99494.81
2023-01-08T20:16:10.939Z,99490.38
2023-01-08T20:18:40.153Z,99489.38
2023-01-08T20:21:09.158Z,99488.16
2023-01-08T20:23:36.259Z,99486.34
2023-01-08T20:26:04.824Z,99471.59
2023-01-08T20:28:31.241Z,99473.56
2023-01-08T20:31:04.189Z,99454.81
2023-01-08T20:33:30.540Z,99461.97
2023-01-08T20:35:56.851Z,99454.97
2023-01-08T20:38:23.224Z,99456.97
2023-01-08T20:40:51.602Z,99452.81
2023-01-08T20:43:17.951Z,99467.19
2023-01-08T20:45:44.418Z,99456.78
2023-01-08T20:48:10.806Z,99443.19
2023-01-08T20:50:37.141Z,99450.00
2023-01-08T20:53:03.660Z,99431.59
2023-01-08T20:55:33.153Z,99435.38
2023-01-08T20:57:59.456Z,99430.75
2023-01-08T21:00:28.480Z,99418.41
2023-01-08T21:02:54.799Z,99420.03
2023-01-08T21:05:21.169Z,99423.41
2023-01-08T21:07:47.535Z,99426.03
2023-01-08T21:10:13.881Z,99419.44
2023-01-08T21:12:40.269Z,99407.28
2023-01-08T21:15:07.066Z,99416.84
2023-01-08T21:17:33.402Z,99410.47
2023-01-08T21:19:59.747Z,99400.06
2023-01-08T21:22:26.223Z,99398.31
2023-01-08T21:24:52.551Z,99392.91
2023-01-08T21:27:18.874Z,99379.94
2023-01-08T21:29:45.240Z,99380.97
2023-01-08T21:32:13.562Z,99379.31
2023-01-08T21:34:39.932Z,99376.50
2023-01-08T21:37:06.277Z,99370.88
2023-01-08T21:39:33.207Z,99382.44
2023-01-08T21:41:59.665Z,99384.78
2023-01-08T21:44:26.233Z,99379.16
2023-01-08T21:46:52.604Z,99374.69
2023-01-08T21:49:18.953Z,99359.72
2023-01-08T21:51:45.286Z,99361.41
2023-01-08T21:54:11.647Z,99350.66
2023-01-08T21:56:37.983Z,99355.34
2023-01-08T21:59:04.333Z,99341.81
2023-01-08T22:01:30.791Z,99336.97
2023-01-08T22:03:57.298Z,99338.13
2023-01-08T22:06:23.636Z,99319.19
2023-01-08T22:08:54.270Z,99335.16
2023-01-08T22:11:21.964Z,99329.31
2023-01-08T22:13:48.272Z,99332.94
2023-01-08T22:16:14.692Z,99327.44
2023-01-08T22:18:41.115Z,99330.06
2023-01-08T22:21:10.720Z,99317.03
2023-01-08T22:23:37.494Z,99308.00
2023-01-08T22:26:08.647Z,99306.34
2023-01-08T22:28:35.144Z,99313.16
2023-01-08T22:31:05.611Z,99308.72
2023-01-08T22:33:31.942Z,99302.28
2023-01-08T22:35:58.310Z,99319.22
2023-01-08T22:38:24.650Z,99299.59
2023-01-08T22:40:51.032Z,99318.53
2023-01-08T22:43:17.337Z,99311.88
2023-01-08T22:45:43.743Z,99298.88
2023-01-08T22:48:10.094Z,99289.25
2023-01-08T22:50:36.552Z,99302.19
2023-01-08T22:53:02.896Z,99288.94
2023-01-08T22:55:29.270Z,99312.53
2023-01-08T22:57:55.602Z,99305.28
2023-01-08T23:00:22.085Z,99312.69
2023-01-08T23:02:48.517Z,99314.59
2023-01-08T23:05:14.919Z,99322.22
2023-01-08T23:07:41.271Z,99314.97
2023-01-08T23:10:08.546Z,99294.44
2023-01-08T23:12:34.922Z,99310.19
2023-01-08T23:15:01.266Z,99307.38
2023-01-08T23:17:27.592Z,99315.22
2023-01-08T23:19:54.041Z,99310.81
2023-01-08T23:22:20.437Z,99320.66
2023-01-08T23:24:46.774Z,99319.91
2023-01-08T23:27:13.138Z,99330.34
2023-01-08T23:29:39.486Z,99310.81
2023-01-08T23:32:05.833Z,99347.84
2023-01-08T23:34:32.199Z,99329.63
2023-01-08T23:36:58.527Z,99331.03
2023-01-08T23:39:24.927Z,99343.94
2023-01-08T23:41:51.323Z,99350.19
2023-01-08T23:44:17.723Z,99351.44
2023-01-08T23:46:44.048Z,99348.13
2023-01-08T23:49:11.584Z,99341.91
2023-01-08T23:51:38.021Z,99342.13
2023-01-08T23:54:04.404Z,99334.97
2023-01-08T23:56:31.201Z,99339.03
2023-01-08T23:58:57.769Z,99329.84
